sensor_id;sensor_type;location;lat;lon;timestamp;P1;durP1;ratioP1;P2;durP2;ratioP2
23800;SDS011;12081;48.614;10.226;2022-12-10T00:01:25;27.73;;;17.50;;
23800;SDS011;12081;48.614;10.226;2022-12-10T00:04:11;28.37;;;16.90;;
23800;SDS011;12081;48.614;10.226;2022-12-10T00:06:56;29.57;;;17.97;;
23800;SDS011;12081;48.614;10.226;2022-12-10T00:09:40;24.43;;;15.60;;
23800;SDS011;12081;48.614;10.226;2022-12-10T00:12:25;28.07;;;17.03;;
23800;SDS011;12081;48.614;10.226;2022-12-10T00:15:09;26.50;;;17.00;;
23800;SDS011;12081;48.614;10.226;2022-12-10T00:17:53;29.17;;;17.27;;
23800;SDS011;12081;48.614;10.226;2022-12-10T00:20:38;29.73;;;18.10;;
23800;SDS011;12081;48.614;10.226;2022-12-10T00:23:22;32.87;;;19.10;;
23800;SDS011;12081;48.614;10.226;2022-12-10T00:28:55;30.87;;;19.07;;
23800;SDS011;12081;48.614;10.226;2022-12-10T00:31:40;31.30;;;19.20;;
23800;SDS011;12081;48.614;10.226;2022-12-10T00:34:24;33.00;;;19.90;;
23800;SDS011;12081;48.614;10.226;2022-12-10T00:37:08;32.30;;;20.47;;
23800;SDS011;12081;48.614;10.226;2022-12-10T00:39:52;30.17;;;18.87;;
23800;SDS011;12081;48.614;10.226;2022-12-10T00:42:36;30.60;;;18.07;;
23800;SDS011;12081;48.614;10.226;2022-12-10T00:45:20;27.33;;;17.03;;
23800;SDS011;12081;48.614;10.226;2022-12-10T00:48:04;29.27;;;18.50;;
23800;SDS011;12081;48.614;10.226;2022-12-10T00:50:59;27.93;;;17.63;;
23800;SDS011;12081;48.614;10.226;2022-12-10T00:53:54;28.97;;;17.77;;
23800;SDS011;12081;48.614;10.226;2022-12-10T00:56:39;31.27;;;17.53;;
23800;SDS011;12081;48.614;10.226;2022-12-10T00:59:24;30.13;;;19.00;;
23800;SDS011;12081;48.614;10.226;2022-12-10T01:02:08;28.10;;;17.77;;
23800;SDS011;12081;48.614;10.226;2022-12-10T01:04:52;30.60;;;19.77;;
23800;SDS011;12081;48.614;10.226;2022-12-10T01:07:37;32.30;;;20.33;;
23800;SDS011;12081;48.614;10.226;2022-12-10T01:10:21;54.27;;;29.13;;
23800;SDS011;12081;48.614;10.226;2022-12-10T01:13:05;45.00;;;26.90;;
23800;SDS011;12081;48.614;10.226;2022-12-10T01:15:49;42.37;;;27.27;;
23800;SDS011;12081;48.614;10.226;2022-12-10T01:18:33;36.20;;;24.27;;
23800;SDS011;12081;48.614;10.226;2022-12-10T01:21:18;32.93;;;21.30;;
23800;SDS011;12081;48.614;10.226;2022-12-10T01:24:03;32.73;;;21.60;;
23800;SDS011;12081;48.614;10.226;2022-12-10T01:26:48;32.20;;;19.97;;
23800;SDS011;12081;48.614;10.226;2022-12-10T01:29:32;32.77;;;21.10;;
23800;SDS011;12081;48.614;10.226;2022-12-10T01:32:16;30.17;;;19.17;;
23800;SDS011;12081;48.614;10.226;2022-12-10T01:35:00;32.83;;;19.83;;
23800;SDS011;12081;48.614;10.226;2022-12-10T01:37:44;28.90;;;18.87;;
23800;SDS011;12081;48.614;10.226;2022-12-10T01:40:28;32.27;;;19.20;;
23800;SDS011;12081;48.614;10.226;2022-12-10T01:43:14;29.97;;;18.60;;
23800;SDS011;12081;48.614;10.226;2022-12-10T01:45:59;28.63;;;18.03;;
23800;SDS011;12081;48.614;10.226;2022-12-10T01:48:43;28.83;;;17.67;;
23800;SDS011;12081;48.614;10.226;2022-12-10T01:51:28;28.17;;;18.33;;
23800;SDS011;12081;48.614;10.226;2022-12-10T01:54:16;29.53;;;18.43;;
23800;SDS011;12081;48.614;10.226;2022-12-10T01:57:16;28.00;;;17.53;;
23800;SDS011;12081;48.614;10.226;2022-12-10T02:00:06;29.37;;;18.23;;
23800;SDS011;12081;48.614;10.226;2022-12-10T02:03:12;32.27;;;19.40;;
23800;SDS011;12081;48.614;10.226;2022-12-10T02:06:04;25.73;;;17.53;;
23800;SDS011;12081;48.614;10.226;2022-12-10T02:12:17;28.20;;;18.57;;
23800;SDS011;12081;48.614;10.226;2022-12-10T02:15:18;30.37;;;18.33;;
23800;SDS011;12081;48.614;10.226;2022-12-10T02:18:08;27.33;;;18.07;;
23800;SDS011;12081;48.614;10.226;2022-12-10T02:21:06;30.10;;;17.80;;
23800;SDS011;12081;48.614;10.226;2022-12-10T02:23:57;29.60;;;18.07;;
23800;SDS011;12081;48.614;10.226;2022-12-10T02:29:28;29.40;;;18.97;;
23800;SDS011;12081;48.614;10.226;2022-12-10T02:32:15;29.57;;;19.33;;
23800;SDS011;12081;48.614;10.226;2022-12-10T02:35:05;27.53;;;17.73;;
23800;SDS011;12081;48.614;10.226;2022-12-10T02:37:56;28.23;;;17.83;;
23800;SDS011;12081;48.614;10.226;2022-12-10T02:40:50;30.17;;;18.93;;
23800;SDS011;12081;48.614;10.226;2022-12-10T02:43:40;26.40;;;18.37;;
23800;SDS011;12081;48.614;10.226;2022-12-10T02:46:29;26.77;;;17.60;;
23800;SDS011;12081;48.614;10.226;2022-12-10T02:49:15;27.13;;;19.10;;
23800;SDS011;12081;48.614;10.226;2022-12-10T02:52:07;31.90;;;18.60;;
23800;SDS011;12081;48.614;10.226;2022-12-10T02:54:53;29.17;;;18.73;;
23800;SDS011;12081;48.614;10.226;2022-12-10T02:57:41;31.40;;;18.70;;
23800;SDS011;12081;48.614;10.226;2022-12-10T03:00:57;27.60;;;18.30;;
23800;SDS011;12081;48.614;10.226;2022-12-10T03:03:56;28.67;;;17.73;;
23800;SDS011;12081;48.614;10.226;2022-12-10T03:06:56;29.33;;;17.97;;
23800;SDS011;12081;48.614;10.226;2022-12-10T03:09:46;28.43;;;18.27;;
23800;SDS011;12081;48.614;10.226;2022-12-10T03:12:38;26.60;;;18.17;;
23800;SDS011;12081;48.614;10.226;2022-12-10T03:15:28;27.83;;;18.60;;
23800;SDS011;12081;48.614;10.226;2022-12-10T03:18:16;30.10;;;18.80;;
23800;SDS011;12081;48.614;10.226;2022-12-10T03:21:05;31.40;;;19.27;;
23800;SDS011;12081;48.614;10.226;2022-12-10T03:23:50;32.30;;;19.57;;
23800;SDS011;12081;48.614;10.226;2022-12-10T03:26:34;28.97;;;18.13;;
23800;SDS011;12081;48.614;10.226;2022-12-10T03:29:29;29.70;;;19.17;;
23800;SDS011;12081;48.614;10.226;2022-12-10T03:32:19;29.37;;;18.77;;
23800;SDS011;12081;48.614;10.226;2022-12-10T03:35:06;27.57;;;18.77;;
23800;SDS011;12081;48.614;10.226;2022-12-10T03:37:51;29.57;;;18.97;;
23800;SDS011;12081;48.614;10.226;2022-12-10T03:40:36;28.20;;;17.33;;
23800;SDS011;12081;48.614;10.226;2022-12-10T03:43:21;28.93;;;18.67;;
23800;SDS011;12081;48.614;10.226;2022-12-10T03:46:05;27.47;;;18.90;;
23800;SDS011;12081;48.614;10.226;2022-12-10T03:48:50;28.47;;;18.30;;
23800;SDS011;12081;48.614;10.226;2022-12-10T03:51:34;32.83;;;19.10;;
23800;SDS011;12081;48.614;10.226;2022-12-10T03:54:18;30.70;;;19.40;;
23800;SDS011;12081;48.614;10.226;2022-12-10T03:57:03;30.23;;;20.10;;
23800;SDS011;12081;48.614;10.226;2022-12-10T03:59:47;30.60;;;19.70;;
23800;SDS011;12081;48.614;10.226;2022-12-10T04:02:31;28.23;;;19.80;;
23800;SDS011;12081;48.614;10.226;2022-12-10T04:05:15;29.67;;;19.57;;
23800;SDS011;12081;48.614;10.226;2022-12-10T04:08:00;26.83;;;17.83;;
23800;SDS011;12081;48.614;10.226;2022-12-10T04:10:44;31.40;;;19.23;;
23800;SDS011;12081;48.614;10.226;2022-12-10T04:13:30;28.03;;;19.37;;
23800;SDS011;12081;48.614;10.226;2022-12-10T04:16:34;28.80;;;18.40;;
23800;SDS011;12081;48.614;10.226;2022-12-10T04:19:20;27.40;;;18.87;;
23800;SDS011;12081;48.614;10.226;2022-12-10T04:22:05;29.03;;;18.23;;
23800;SDS011;12081;48.614;10.226;2022-12-10T04:25:10;28.17;;;18.00;;
23800;SDS011;12081;48.614;10.226;2022-12-10T04:28:14;32.23;;;20.70;;
23800;SDS011;12081;48.614;10.226;2022-12-10T04:30:58;31.27;;;19.50;;
23800;SDS011;12081;48.614;10.226;2022-12-10T04:33:42;26.53;;;18.47;;
23800;SDS011;12081;48.614;10.226;2022-12-10T04:36:26;31.77;;;18.53;;
23800;SDS011;12081;48.614;10.226;2022-12-10T04:39:11;30.47;;;19.40;;
23800;SDS011;12081;48.614;10.226;2022-12-10T04:41:56;32.90;;;19.27;;
23800;SDS011;12081;48.614;10.226;2022-12-10T04:44:40;27.27;;;19.13;;
23800;SDS011;12081;48.614;10.226;2022-12-10T04:47:24;29.73;;;18.77;;
23800;SDS011;12081;48.614;10.226;2022-12-10T04:50:09;30.07;;;18.90;;
23800;SDS011;12081;48.614;10.226;2022-12-10T04:52:53;30.77;;;18.07;;
23800;SDS011;12081;48.614;10.226;2022-12-10T04:55:37;30.17;;;18.87;;
23800;SDS011;12081;48.614;10.226;2022-12-10T04:58:21;32.13;;;19.53;;
23800;SDS011;12081;48.614;10.226;2022-12-10T05:01:07;28.20;;;17.47;;
23800;SDS011;12081;48.614;10.226;2022-12-10T05:03:52;31.23;;;19.33;;
23800;SDS011;12081;48.614;10.226;2022-12-10T05:06:37;36.83;;;20.07;;
23800;SDS011;12081;48.614;10.226;2022-12-10T05:09:21;31.00;;;20.07;;
23800;SDS011;12081;48.614;10.226;2022-12-10T05:12:06;29.53;;;19.00;;
23800;SDS011;12081;48.614;10.226;2022-12-10T05:14:50;31.57;;;18.80;;
23800;SDS011;12081;48.614;10.226;2022-12-10T05:17:34;30.67;;;18.47;;
23800;SDS011;12081;48.614;10.226;2022-12-10T05:20:18;32.80;;;20.00;;
23800;SDS011;12081;48.614;10.226;2022-12-10T05:23:02;29.07;;;18.83;;
23800;SDS011;12081;48.614;10.226;2022-12-10T05:26:13;30.73;;;19.20;;
23800;SDS011;12081;48.614;10.226;2022-12-10T05:29:01;37.50;;;20.53;;
23800;SDS011;12081;48.614;10.226;2022-12-10T05:31:45;30.67;;;19.20;;
23800;SDS011;12081;48.614;10.226;2022-12-10T05:34:30;30.70;;;18.37;;
23800;SDS011;12081;48.614;10.226;2022-12-10T05:37:15;32.30;;;18.87;;
23800;SDS011;12081;48.614;10.226;2022-12-10T05:39:59;30.07;;;17.50;;
23800;SDS011;12081;48.614;10.226;2022-12-10T05:42:43;27.67;;;17.37;;
23800;SDS011;12081;48.614;10.226;2022-12-10T05:45:28;27.00;;;18.47;;
23800;SDS011;12081;48.614;10.226;2022-12-10T05:48:14;31.60;;;18.00;;
23800;SDS011;12081;48.614;10.226;2022-12-10T05:51:07;24.50;;;15.83;;
23800;SDS011;12081;48.614;10.226;2022-12-10T05:53:53;27.63;;;18.27;;
23800;SDS011;12081;48.614;10.226;2022-12-10T05:56:38;29.97;;;18.20;;
23800;SDS011;12081;48.614;10.226;2022-12-10T05:59:23;27.60;;;17.77;;
23800;SDS011;12081;48.614;10.226;2022-12-10T06:02:07;28.00;;;17.77;;
23800;SDS011;12081;48.614;10.226;2022-12-10T06:04:51;27.77;;;18.37;;
23800;SDS011;12081;48.614;10.226;2022-12-10T06:07:35;29.80;;;18.50;;
23800;SDS011;12081;48.614;10.226;2022-12-10T06:10:19;28.93;;;17.53;;
23800;SDS011;12081;48.614;10.226;2022-12-10T06:13:03;29.20;;;17.73;;
23800;SDS011;12081;48.614;10.226;2022-12-10T06:15:48;28.57;;;18.00;;
23800;SDS011;12081;48.614;10.226;2022-12-10T06:18:32;28.47;;;17.07;;
23800;SDS011;12081;48.614;10.226;2022-12-10T06:21:16;29.90;;;18.37;;
23800;SDS011;12081;48.614;10.226;2022-12-10T06:24:01;28.87;;;17.83;;
23800;SDS011;12081;48.614;10.226;2022-12-10T06:26:46;26.30;;;17.20;;
23800;SDS011;12081;48.614;10.226;2022-12-10T06:29:30;23.57;;;16.43;;
23800;SDS011;12081;48.614;10.226;2022-12-10T06:32:33;27.80;;;16.80;;
23800;SDS011;12081;48.614;10.226;2022-12-10T06:35:17;27.67;;;17.67;;
23800;SDS011;12081;48.614;10.226;2022-12-10T06:38:01;26.10;;;17.40;;
23800;SDS011;12081;48.614;10.226;2022-12-10T06:40:45;26.83;;;16.57;;
23800;SDS011;12081;48.614;10.226;2022-12-10T06:43:29;25.07;;;16.60;;
23800;SDS011;12081;48.614;10.226;2022-12-10T06:46:14;27.10;;;18.27;;
23800;SDS011;12081;48.614;10.226;2022-12-10T06:49:00;27.03;;;17.53;;
23800;SDS011;12081;48.614;10.226;2022-12-10T06:51:44;24.63;;;15.77;;
23800;SDS011;12081;48.614;10.226;2022-12-10T06:54:30;26.20;;;16.53;;
23800;SDS011;12081;48.614;10.226;2022-12-10T06:57:15;31.00;;;18.23;;
23800;SDS011;12081;48.614;10.226;2022-12-10T06:59:59;33.63;;;18.43;;
23800;SDS011;12081;48.614;10.226;2022-12-10T07:02:43;26.37;;;16.70;;
23800;SDS011;12081;48.614;10.226;2022-12-10T07:05:27;24.13;;;16.00;;
23800;SDS011;12081;48.614;10.226;2022-12-10T07:08:11;24.93;;;15.97;;
23800;SDS011;12081;48.614;10.226;2022-12-10T07:10:56;24.57;;;15.43;;
23800;SDS011;12081;48.614;10.226;2022-12-10T07:13:40;27.17;;;17.93;;
23800;SDS011;12081;48.614;10.226;2022-12-10T07:16:28;23.53;;;16.53;;
23800;SDS011;12081;48.614;10.226;2022-12-10T07:19:14;22.83;;;15.43;;
23800;SDS011;12081;48.614;10.226;2022-12-10T07:21:58;23.37;;;15.87;;
23800;SDS011;12081;48.614;10.226;2022-12-10T07:24:42;23.83;;;16.13;;
23800;SDS011;12081;48.614;10.226;2022-12-10T07:27:26;25.93;;;15.73;;
23800;SDS011;12081;48.614;10.226;2022-12-10T07:30:10;26.97;;;15.73;;
23800;SDS011;12081;48.614;10.226;2022-12-10T07:32:55;27.03;;;16.47;;
23800;SDS011;12081;48.614;10.226;2022-12-10T07:35:39;30.67;;;17.70;;
23800;SDS011;12081;48.614;10.226;2022-12-10T07:38:23;27.10;;;15.10;;
23800;SDS011;12081;48.614;10.226;2022-12-10T07:41:09;24.60;;;15.90;;
23800;SDS011;12081;48.614;10.226;2022-12-10T07:43:54;28.13;;;16.60;;
23800;SDS011;12081;48.614;10.226;2022-12-10T07:46:38;29.23;;;17.60;;
23800;SDS011;12081;48.614;10.226;2022-12-10T07:49:23;24.07;;;16.40;;
23800;SDS011;12081;48.614;10.226;2022-12-10T07:52:07;24.83;;;16.13;;
23800;SDS011;12081;48.614;10.226;2022-12-10T07:54:52;28.30;;;16.37;;
23800;SDS011;12081;48.614;10.226;2022-12-10T07:57:36;27.03;;;15.87;;
23800;SDS011;12081;48.614;10.226;2022-12-10T08:00:20;26.17;;;16.10;;
23800;SDS011;12081;48.614;10.226;2022-12-10T08:03:04;28.97;;;16.77;;
23800;SDS011;12081;48.614;10.226;2022-12-10T08:05:48;24.17;;;16.03;;
23800;SDS011;12081;48.614;10.226;2022-12-10T08:08:32;21.93;;;14.83;;
23800;SDS011;12081;48.614;10.226;2022-12-10T08:11:19;25.07;;;16.67;;
23800;SDS011;12081;48.614;10.226;2022-12-10T08:14:04;27.03;;;17.13;;
23800;SDS011;12081;48.614;10.226;2022-12-10T08:16:48;22.53;;;15.90;;
23800;SDS011;12081;48.614;10.226;2022-12-10T08:19:32;26.23;;;15.67;;
23800;SDS011;12081;48.614;10.226;2022-12-10T08:22:16;24.97;;;15.50;;
23800;SDS011;12081;48.614;10.226;2022-12-10T08:25:01;26.40;;;15.20;;
23800;SDS011;12081;48.614;10.226;2022-12-10T08:27:45;22.90;;;14.83;;
23800;SDS011;12081;48.614;10.226;2022-12-10T08:30:29;20.07;;;14.10;;
23800;SDS011;12081;48.614;10.226;2022-12-10T08:33:14;25.23;;;14.20;;
23800;SDS011;12081;48.614;10.226;2022-12-10T08:35:59;19.73;;;13.23;;
23800;SDS011;12081;48.614;10.226;2022-12-10T08:38:44;21.27;;;14.70;;
23800;SDS011;12081;48.614;10.226;2022-12-10T08:41:28;22.10;;;14.30;;
23800;SDS011;12081;48.614;10.226;2022-12-10T08:44:12;23.03;;;14.90;;
23800;SDS011;12081;48.614;10.226;2022-12-10T08:46:56;21.77;;;13.30;;
23800;SDS011;12081;48.614;10.226;2022-12-10T08:49:41;21.37;;;13.67;;
23800;SDS011;12081;48.614;10.226;2022-12-10T08:52:25;23.47;;;14.50;;
23800;SDS011;12081;48.614;10.226;2022-12-10T08:55:12;21.83;;;12.80;;
23800;SDS011;12081;48.614;10.226;2022-12-10T09:35:18;18.50;;;13.10;;
23800;SDS011;12081;48.614;10.226;2022-12-10T09:38:02;20.53;;;13.83;;
23800;SDS011;12081;48.614;10.226;2022-12-10T09:40:49;19.20;;;12.70;;
23800;SDS011;12081;48.614;10.226;2022-12-10T09:43:44;16.57;;;12.17;;
23800;SDS011;12081;48.614;10.226;2022-12-10T10:03:16;18.37;;;11.80;;
23800;SDS011;12081;48.614;10.226;2022-12-10T10:08:38;17.37;;;11.20;;
23800;SDS011;12081;48.614;10.226;2022-12-10T10:14:10;17.83;;;12.03;;
23800;SDS011;12081;48.614;10.226;2022-12-10T10:17:00;17.07;;;11.87;;
23800;SDS011;12081;48.614;10.226;2022-12-10T10:19:46;16.90;;;11.33;;
23800;SDS011;12081;48.614;10.226;2022-12-10T12:21:28;25.33;;;15.03;;
23800;SDS011;12081;48.614;10.226;2022-12-10T12:24:17;21.43;;;14.63;;
23800;SDS011;12081;48.614;10.226;2022-12-10T12:27:18;21.13;;;14.20;;
23800;SDS011;12081;48.614;10.226;2022-12-10T12:30:25;21.70;;;14.33;;
23800;SDS011;12081;48.614;10.226;2022-12-10T12:33:16;19.77;;;13.77;;
23800;SDS011;12081;48.614;10.226;2022-12-10T12:36:12;23.47;;;14.27;;
23800;SDS011;12081;48.614;10.226;2022-12-10T12:39:17;21.87;;;13.10;;
23800;SDS011;12081;48.614;10.226;2022-12-10T12:47:34;18.67;;;11.87;;
23800;SDS011;12081;48.614;10.226;2022-12-10T12:53:32;17.70;;;12.97;;
23800;SDS011;12081;48.614;10.226;2022-12-10T12:59:35;22.10;;;13.80;;
23800;SDS011;12081;48.614;10.226;2022-12-10T13:03:13;20.73;;;13.23;;
23800;SDS011;12081;48.614;10.226;2022-12-10T13:05:36;19.97;;;13.13;;
23800;SDS011;12081;48.614;10.226;2022-12-10T13:09:15;18.27;;;13.03;;
23800;SDS011;12081;48.614;10.226;2022-12-10T13:38:22;18.70;;;13.30;;
23800;SDS011;12081;48.614;10.226;2022-12-10T13:41:07;20.20;;;14.60;;
23800;SDS011;12081;48.614;10.226;2022-12-10T13:44:25;19.17;;;13.30;;
23800;SDS011;12081;48.614;10.226;2022-12-10T13:47:24;22.10;;;15.30;;
23800;SDS011;12081;48.614;10.226;2022-12-10T13:59:23;21.77;;;13.77;;
23800;SDS011;12081;48.614;10.226;2022-12-10T14:02:41;20.00;;;14.27;;
23800;SDS011;12081;48.614;10.226;2022-12-10T14:06:13;19.83;;;14.93;;
23800;SDS011;12081;48.614;10.226;2022-12-10T14:09:04;23.30;;;14.67;;
23800;SDS011;12081;48.614;10.226;2022-12-10T14:12:01;22.07;;;14.97;;
23800;SDS011;12081;48.614;10.226;2022-12-10T14:15:01;22.63;;;15.23;;
23800;SDS011;12081;48.614;10.226;2022-12-10T14:18:08;23.27;;;15.60;;
23800;SDS011;12081;48.614;10.226;2022-12-10T14:20:54;21.90;;;14.07;;
23800;SDS011;12081;48.614;10.226;2022-12-10T14:23:43;22.40;;;14.73;;
23800;SDS011;12081;48.614;10.226;2022-12-10T14:26:33;23.53;;;15.77;;
23800;SDS011;12081;48.614;10.226;2022-12-10T14:29:20;23.07;;;14.30;;
23800;SDS011;12081;48.614;10.226;2022-12-10T14:32:04;23.57;;;14.67;;
23800;SDS011;12081;48.614;10.226;2022-12-10T14:37:31;20.23;;;13.53;;
23800;SDS011;12081;48.614;10.226;2022-12-10T14:40:26;21.93;;;13.87;;
23800;SDS011;12081;48.614;10.226;2022-12-10T14:43:38;21.63;;;14.17;;
23800;SDS011;12081;48.614;10.226;2022-12-10T14:46:25;19.70;;;14.07;;
23800;SDS011;12081;48.614;10.226;2022-12-10T14:49:15;19.57;;;13.70;;
23800;SDS011;12081;48.614;10.226;2022-12-10T14:52:02;22.57;;;14.83;;
23800;SDS011;12081;48.614;10.226;2022-12-10T14:54:52;23.03;;;15.30;;
23800;SDS011;12081;48.614;10.226;2022-12-10T14:57:42;26.73;;;19.07;;
23800;SDS011;12081;48.614;10.226;2022-12-10T15:00:32;35.80;;;18.97;;
23800;SDS011;12081;48.614;10.226;2022-12-10T15:03:22;31.67;;;20.53;;
23800;SDS011;12081;48.614;10.226;2022-12-10T15:06:15;25.50;;;18.00;;
23800;SDS011;12081;48.614;10.226;2022-12-10T15:09:02;37.27;;;22.27;;
23800;SDS011;12081;48.614;10.226;2022-12-10T15:11:52;31.80;;;20.10;;
23800;SDS011;12081;48.614;10.226;2022-12-10T15:14:42;32.87;;;21.77;;
23800;SDS011;12081;48.614;10.226;2022-12-10T15:17:33;27.47;;;19.17;;
23800;SDS011;12081;48.614;10.226;2022-12-10T15:20:23;29.03;;;19.03;;
23800;SDS011;12081;48.614;10.226;2022-12-10T15:25:59;26.30;;;17.83;;
23800;SDS011;12081;48.614;10.226;2022-12-10T15:29:14;27.50;;;17.47;;
23800;SDS011;12081;48.614;10.226;2022-12-10T15:32:10;28.73;;;18.77;;
23800;SDS011;12081;48.614;10.226;2022-12-10T15:34:59;29.20;;;18.03;;
23800;SDS011;12081;48.614;10.226;2022-12-10T15:37:45;34.27;;;22.27;;
23800;SDS011;12081;48.614;10.226;2022-12-10T15:40:34;46.73;;;27.03;;
23800;SDS011;12081;48.614;10.226;2022-12-10T15:46:15;28.73;;;18.17;;
23800;SDS011;12081;48.614;10.226;2022-12-10T15:49:01;30.77;;;20.00;;
23800;SDS011;12081;48.614;10.226;2022-12-10T15:51:46;30.30;;;19.97;;
23800;SDS011;12081;48.614;10.226;2022-12-10T15:54:34;33.23;;;21.77;;
23800;SDS011;12081;48.614;10.226;2022-12-10T15:57:21;31.23;;;21.00;;
23800;SDS011;12081;48.614;10.226;2022-12-10T16:00:17;34.63;;;21.70;;
23800;SDS011;12081;48.614;10.226;2022-12-10T16:03:06;32.60;;;20.43;;
23800;SDS011;12081;48.614;10.226;2022-12-10T16:05:55;33.53;;;20.67;;
23800;SDS011;12081;48.614;10.226;2022-12-10T16:08:39;31.90;;;20.87;;
23800;SDS011;12081;48.614;10.226;2022-12-10T16:11:24;45.23;;;25.87;;
23800;SDS011;12081;48.614;10.226;2022-12-10T16:14:08;29.80;;;20.90;;
23800;SDS011;12081;48.614;10.226;2022-12-10T16:16:54;34.37;;;22.23;;
23800;SDS011;12081;48.614;10.226;2022-12-10T16:19:38;37.20;;;22.73;;
23800;SDS011;12081;48.614;10.226;2022-12-10T16:22:25;34.10;;;21.37;;
23800;SDS011;12081;48.614;10.226;2022-12-10T16:25:09;36.20;;;22.10;;
23800;SDS011;12081;48.614;10.226;2022-12-10T16:27:53;36.20;;;24.77;;
23800;SDS011;12081;48.614;10.226;2022-12-10T16:30:45;32.23;;;21.27;;
23800;SDS011;12081;48.614;10.226;2022-12-10T16:33:32;37.47;;;24.57;;
23800;SDS011;12081;48.614;10.226;2022-12-10T16:36:17;33.40;;;21.73;;
23800;SDS011;12081;48.614;10.226;2022-12-10T16:39:01;39.50;;;25.20;;
23800;SDS011;12081;48.614;10.226;2022-12-10T16:41:50;36.77;;;23.60;;
23800;SDS011;12081;48.614;10.226;2022-12-10T16:44:36;33.77;;;22.67;;
23800;SDS011;12081;48.614;10.226;2022-12-10T16:47:20;32.80;;;21.07;;
23800;SDS011;12081;48.614;10.226;2022-12-10T16:50:04;37.00;;;22.10;;
23800;SDS011;12081;48.614;10.226;2022-12-10T16:52:50;35.03;;;21.93;;
23800;SDS011;12081;48.614;10.226;2022-12-10T16:55:36;33.50;;;21.50;;
23800;SDS011;12081;48.614;10.226;2022-12-10T16:58:20;34.23;;;20.17;;
23800;SDS011;12081;48.614;10.226;2022-12-10T17:01:12;32.30;;;19.60;;
23800;SDS011;12081;48.614;10.226;2022-12-10T17:04:11;30.97;;;19.43;;
23800;SDS011;12081;48.614;10.226;2022-12-10T17:06:55;30.20;;;19.17;;
23800;SDS011;12081;48.614;10.226;2022-12-10T17:09:39;33.30;;;20.17;;
23800;SDS011;12081;48.614;10.226;2022-12-10T17:12:25;31.93;;;19.23;;
23800;SDS011;12081;48.614;10.226;2022-12-10T17:15:13;28.80;;;18.43;;
23800;SDS011;12081;48.614;10.226;2022-12-10T17:17:57;28.43;;;16.60;;
23800;SDS011;12081;48.614;10.226;2022-12-10T17:20:42;28.07;;;18.00;;
23800;SDS011;12081;48.614;10.226;2022-12-10T17:23:27;27.47;;;18.27;;
23800;SDS011;12081;48.614;10.226;2022-12-10T17:26:15;31.47;;;18.03;;
23800;SDS011;12081;48.614;10.226;2022-12-10T17:32:36;25.53;;;16.17;;
23800;SDS011;12081;48.614;10.226;2022-12-10T17:35:21;24.03;;;15.57;;
23800;SDS011;12081;48.614;10.226;2022-12-10T17:38:07;25.53;;;16.50;;
23800;SDS011;12081;48.614;10.226;2022-12-10T17:40:59;25.53;;;17.03;;
23800;SDS011;12081;48.614;10.226;2022-12-10T17:43:43;28.37;;;16.67;;
23800;SDS011;12081;48.614;10.226;2022-12-10T17:46:27;27.67;;;18.20;;
23800;SDS011;12081;48.614;10.226;2022-12-10T17:49:15;28.77;;;17.90;;
23800;SDS011;12081;48.614;10.226;2022-12-10T17:51:59;29.47;;;19.13;;
23800;SDS011;12081;48.614;10.226;2022-12-10T17:54:44;28.20;;;17.50;;
23800;SDS011;12081;48.614;10.226;2022-12-10T17:57:28;26.30;;;17.33;;
23800;SDS011;12081;48.614;10.226;2022-12-10T18:00:13;31.87;;;19.07;;
23800;SDS011;12081;48.614;10.226;2022-12-10T18:03:00;28.43;;;17.30;;
23800;SDS011;12081;48.614;10.226;2022-12-10T18:05:44;27.40;;;17.57;;
23800;SDS011;12081;48.614;10.226;2022-12-10T18:08:29;24.20;;;15.97;;
23800;SDS011;12081;48.614;10.226;2022-12-10T18:11:18;26.90;;;17.20;;
23800;SDS011;12081;48.614;10.226;2022-12-10T18:14:05;26.13;;;17.00;;
23800;SDS011;12081;48.614;10.226;2022-12-10T18:16:49;27.03;;;17.63;;
23800;SDS011;12081;48.614;10.226;2022-12-10T18:19:33;24.80;;;15.40;;
23800;SDS011;12081;48.614;10.226;2022-12-10T18:22:18;24.90;;;16.00;;
23800;SDS011;12081;48.614;10.226;2022-12-10T18:25:02;26.87;;;16.60;;
23800;SDS011;12081;48.614;10.226;2022-12-10T18:27:47;26.40;;;16.47;;
23800;SDS011;12081;48.614;10.226;2022-12-10T18:30:31;31.30;;;19.40;;
23800;SDS011;12081;48.614;10.226;2022-12-10T18:33:15;27.17;;;15.70;;
23800;SDS011;12081;48.614;10.226;2022-12-10T18:36:00;22.77;;;16.10;;
23800;SDS011;12081;48.614;10.226;2022-12-10T18:38:44;23.97;;;15.77;;
23800;SDS011;12081;48.614;10.226;2022-12-10T18:41:29;23.43;;;15.00;;
23800;SDS011;12081;48.614;10.226;2022-12-10T18:44:16;23.73;;;15.33;;
23800;SDS011;12081;48.614;10.226;2022-12-10T18:47:08;24.70;;;15.90;;
23800;SDS011;12081;48.614;10.226;2022-12-10T18:49:54;25.47;;;15.40;;
23800;SDS011;12081;48.614;10.226;2022-12-10T18:52:38;26.67;;;15.67;;
23800;SDS011;12081;48.614;10.226;2022-12-10T18:55:23;23.47;;;15.00;;
23800;SDS011;12081;48.614;10.226;2022-12-10T18:58:08;25.30;;;15.30;;
23800;SDS011;12081;48.614;10.226;2022-12-10T19:00:52;23.53;;;14.17;;
23800;SDS011;12081;48.614;10.226;2022-12-10T19:03:36;32.73;;;22.17;;
23800;SDS011;12081;48.614;10.226;2022-12-10T19:06:22;20.50;;;12.97;;
23800;SDS011;12081;48.614;10.226;2022-12-10T19:09:14;19.93;;;13.47;;
23800;SDS011;12081;48.614;10.226;2022-12-10T19:12:00;19.30;;;12.50;;
23800;SDS011;12081;48.614;10.226;2022-12-10T19:14:44;18.70;;;11.90;;
23800;SDS011;12081;48.614;10.226;2022-12-10T19:17:28;20.23;;;12.37;;
23800;SDS011;12081;48.614;10.226;2022-12-10T19:20:13;23.00;;;14.17;;
23800;SDS011;12081;48.614;10.226;2022-12-10T19:23:05;21.93;;;12.73;;
23800;SDS011;12081;48.614;10.226;2022-12-10T19:25:50;20.20;;;12.60;;
23800;SDS011;12081;48.614;10.226;2022-12-10T19:28:34;18.90;;;12.03;;
23800;SDS011;12081;48.614;10.226;2022-12-10T19:31:19;17.00;;;10.53;;
23800;SDS011;12081;48.614;10.226;2022-12-10T19:34:03;16.23;;;10.23;;
23800;SDS011;12081;48.614;10.226;2022-12-10T19:36:47;16.67;;;10.17;;
23800;SDS011;12081;48.614;10.226;2022-12-10T19:39:32;21.10;;;11.50;;
23800;SDS011;12081;48.614;10.226;2022-12-10T19:42:18;23.47;;;11.07;;
23800;SDS011;12081;48.614;10.226;2022-12-10T19:45:02;17.43;;;11.27;;
23800;SDS011;12081;48.614;10.226;2022-12-10T19:47:48;16.03;;;10.03;;
23800;SDS011;12081;48.614;10.226;2022-12-10T19:50:40;14.93;;;9.27;;
23800;SDS011;12081;48.614;10.226;2022-12-10T19:53:24;18.30;;;12.90;;
23800;SDS011;12081;48.614;10.226;2022-12-10T19:56:17;15.43;;;8.67;;
23800;SDS011;12081;48.614;10.226;2022-12-10T19:59:13;14.60;;;9.93;;
23800;SDS011;12081;48.614;10.226;2022-12-10T20:02:00;17.40;;;11.63;;
23800;SDS011;12081;48.614;10.226;2022-12-10T20:04:44;18.27;;;11.00;;
23800;SDS011;12081;48.614;10.226;2022-12-10T20:07:28;16.27;;;9.73;;
23800;SDS011;12081;48.614;10.226;2022-12-10T20:13:04;18.17;;;10.07;;
23800;SDS011;12081;48.614;10.226;2022-12-10T20:15:48;26.33;;;18.17;;